Date,TemperatureHighF,TemperatureAvgF,TemperatureLowF,DewpointHighF,DewpointAvgF,DewpointLowF,HumidityHigh,HumidityAvg,HumidityLow,PressureMaxIn,PressureMinIn,WindSpeedMaxMPH,WindSpeedAvgMPH,GustSpeedMaxMPH,PrecipitationSumIn
2013-2-6,62,54,46,49,46,44,95,78,57,0.00,40.00,21,14,34,0.00
2013-2-7,60,52,47,50,47,40,96,85,64,0.00,40.00,21,16,32,0.02
2013-2-8,64,52,41,51,44,33,94,74,44,0.00,40.00,14,8,24,0.01
2013-2-9,65,52,39,50,37,21,95,60,25,0.00,40.00,18,11,27,0.00
2013-2-10,60,53,45,47,38,23,98,62,27,0.00,40.00,25,17,37,0.00
2013-2-11,68,54,44,48,38,26,88,59,28,0.00,40.00,18,13,29,0.00
2013-2-12,68,53,42,46,36,16,96,58,21,0.00,40.00,18,9,29,0.00
2013-2-13,66,53,41,47,29,6,93,44,10,0.00,40.00,12,7,22,0.00
2013-2-14,65,52,41,39,22,7,88,35,14,0.00,40.00,20,12,31,0.00
2013-2-15,58,49,42,51,43,26,95,79,50,0.00,40.00,26,19,40,0.00
2013-2-16,55,49,45,49,46,41,96,89,69,0.00,40.00,25,20,39,0.13
2013-2-17,53,47,42,51,44,39,96,91,84,0.00,40.00,28,21,41,0.06
2013-2-18,52,47,42,51,45,40,97,95,85,0.00,40.00,28,21,42,0.66
2013-2-19,55,47,41,47,43,39,97,86,57,0.00,40.00,25,20,37,0.02
2013-2-20,55,49,45,48,44,36,97,85,64,0.00,40.00,24,17,34,0.01
2013-2-21,62,50,43,48,44,38,95,80,53,0.00,40.00,21,15,34,0.14
2013-2-22,53,48,44,49,46,42,96,92,79,0.00,40.00,20,16,34,0.30
2013-2-23,56,48,44,49,45,42,97,90,75,0.00,40.00,18,14,29,0.04
2013-2-24,57,49,44,49,46,42,96,89,72,0.00,40.00,23,18,37,0.02
2013-2-25,58,50,44,49,45,41,96,84,61,0.00,40.00,24,18,35,0.02
2013-2-26,58,49,43,47,42,36,96,79,56,0.00,40.00,27,22,43,0.02
2013-2-27,61,51,42,45,36,10,95,63,24,0.00,40.00,24,19,40,0.01
2013-2-28,66,52,42,43,22,5,90,38,13,0.00,40.00,28,21,44,0.00
2013-3-1,60,50,40,41,32,5,90,56,11,0.00,40.00,29,23,46,0.00
2013-3-2,60,51,41,42,29,9,89,46,17,0.00,40.00,27,21,43,0.00
2013-3-3,66,53,40,43,24,-1,90,44,8,0.00,40.00,24,19,38,0.00
2013-3-4,67,53,40,45,20,-7,90,35,8,0.00,40.00,16,11,24,0.00
2013-3-5,67,52,39,50,36,22,91,61,18,0.00,40.00,16,9,26,0.00
2013-3-6,66,51,43,51,43,27,96,77,23,0.00,40.00,18,12,30,0.00
2013-3-7,65,52,39,52,38,12,98,62,16,0.00,40.00,15,8,25,0.01
2013-3-8,68,52,42,50,44,38,98,76,42,0.00,40.00,12,8,20,0.01
2013-3-9,63,51,39,47,41,36,91,72,46,0.00,40.00,22,9,36,0.00
2013-3-10,63,54,41,47,40,26,97,60,32,0.00,40.00,19,12,33,0.00
2013-3-11,66,53,39,51,41,30,94,68,30,0.00,40.00,13,6,24,0.00
2013-3-12,58,53,48,48,47,42,92,80,67,0.00,40.00,15,8,26,0.00
2013-3-13,66,54,41,49,42,29,95,69,28,0.00,40.00,16,7,28,0.00
2013-3-14,64,52,42,49,44,34,96,78,33,0.00,40.00,20,8,40,0.00
2013-3-15,62,53,46,54,47,42,93,81,63,0.00,40.00,14,8,25,0.00
2013-3-16,61,53,46,49,42,21,95,69,31,0.00,40.00,19,15,36,0.00
2013-3-17,57,51,45,48,44,36,98,77,48,0.00,40.00,17,13,32,0.01
2013-3-18,60,52,47,47,42,32,88,72,52,0.00,40.00,16,10,28,0.01
2013-3-19,62,53,44,48,43,36,94,70,51,0.00,40.00,14,8,28,0.00
2013-3-20,61,50,41,51,44,32,97,81,59,0.00,40.00,12,7,21,0.03
2013-3-21,65,54,46,47,42,38,86,65,44,0.00,40.00,25,14,46,0.01
2013-3-22,62,53,42,51,43,34,92,69,40,0.00,40.00,11,6,22,0.00
2013-3-23,67,55,48,52,49,42,96,83,42,0.00,40.00,14,6,21,0.00
2013-3-24,61,55,52,53,46,18,91,71,21,0.00,40.00,15,10,23,0.00
2013-3-25,66,55,45,53,48,41,93,77,46,0.00,40.00,12,6,26,0.00
2013-3-26,66,56,45,51,47,41,95,75,48,0.00,40.00,12,6,24,0.00
2013-3-27,64,55,46,46,40,33,77,60,32,0.00,40.00,15,6,30,0.00
2013-3-28,63,54,48,47,44,38,81,68,47,0.00,40.00,17,14,30,0.00
2013-3-29,65,52,44,52,47,41,98,83,52,0.00,40.00,15,9,24,0.31
2013-3-30,56,50,46,51,48,45,98,93,78,0.00,40.00,11,5,19,0.26
2013-3-31,60,50,42,50,44,11,98,81,55,0.00,40.00,18,9,27,0.01
2013-4-1,61,50,35,44,26,-1,97,49,12,0.00,40.00,20,13,36,0.00
2013-4-2,61,50,39,48,40,27,95,69,32,0.00,40.00,15,8,26,0.00
2013-4-3,62,52,41,48,42,27,93,74,29,0.00,40.00,13,7,24,0.00
2013-4-4,65,53,39,49,44,36,95,74,50,0.00,40.00,12,7,26,0.00
2013-4-5,69,55,46,51,48,44,93,77,52,0.00,40.00,24,14,39,0.00
2013-4-6,68,57,48,52,47,35,95,70,48,0.00,40.00,26,18,41,0.00
2013-4-7,69,59,50,42,35,30,58,41,26,0.00,40.00,24,15,41,0.00
2013-4-8,66,55,44,48,43,27,91,65,36,0.00,40.00,24,15,36,0.00
2013-4-9,66,55,49,51,48,44,96,80,50,0.00,40.00,19,12,30,0.00
2013-4-10,72,59,44,53,44,21,91,64,17,0.00,40.00,17,13,26,0.00
2013-4-11,73,62,49,53,37,17,95,48,13,0.00,40.00,16,13,29,0.00
2013-4-12,72,60,48,51,36,16,95,45,12,0.00,40.00,14,8,24,0.00
2013-4-13,73,58,45,49,43,27,95,64,18,0.00,40.00,20,7,30,0.00
2013-4-14,73,60,47,53,40,30,94,52,23,0.00,40.00,16,8,30,0.00
2013-4-15,70,59,47,54,41,25,95,56,20,0.00,40.00,14,6,26,0.00
2013-4-16,72,59,49,51,41,23,85,54,16,0.00,40.00,14,8,24,0.00
2013-4-17,67,57,49,53,40,25,84,56,29,0.00,40.00,21,14,34,0.00
2013-4-18,66,56,45,50,46,37,95,74,37,0.00,40.00,24,19,39,0.00
2013-4-19,66,55,46,54,47,34,95,77,53,0.00,40.00,20,14,32,0.00
2013-4-20,67,56,44,52,47,37,96,74,35,0.00,40.00,13,7,23,0.00
2013-4-21,69,56,46,52,45,36,94,68,31,0.00,40.00,14,8,27,0.00
2013-4-22,69,58,46,51,40,26,89,53,21,0.00,40.00,17,6,29,0.00
2013-4-23,72,59,46,53,42,28,97,59,22,0.00,40.00,19,9,36,0.00
2013-4-24,71,59,47,52,40,27,97,55,22,0.00,40.00,16,10,28,0.00
2013-4-25,70,58,52,50,41,34,69,54,33,0.00,40.00,18,14,28,0.00
2013-4-26,69,57,48,52,42,34,88,60,31,0.00,40.00,22,13,33,0.00
2013-4-27,67,54,44,52,44,27,97,71,45,0.00,40.00,20,9,34,0.00
2013-4-28,69,56,43,53,47,33,97,74,26,0.00,40.00,11,7,25,0.00
2013-4-29,69,58,51,51,49,47,91,76,50,0.00,40.00,13,7,24,0.00
2013-4-30,67,57,46,54,48,26,94,74,31,0.00,40.00,17,8,27,0.00
2013-5-1,71,58,49,48,38,21,85,50,26,0.00,40.00,22,16,31,0.00
2013-5-2,70,57,48,54,48,36,96,76,42,0.00,40.00,22,12,32,0.00
2013-5-3,66,54,43,54,47,35,97,77,50,0.00,40.00,13,6,26,0.00
2013-5-4,67,56,45,50,48,43,98,76,50,0.00,40.00,15,7,28,0.00
2013-5-5,65,57,51,53,50,48,96,80,54,0.00,40.00,14,6,23,0.00
2013-5-6,67,59,50,54,50,43,97,76,46,0.00,40.00,13,6,23,0.00
2013-5-7,70,59,48,56,52,44,98,80,45,0.00,40.00,14,6,23,0.00
2013-5-8,70,59,47,56,50,38,95,74,33,0.00,40.00,13,6,23,0.00
2013-5-9,72,60,47,57,52,43,94,77,47,0.00,40.00,13,7,22,0.00
2013-5-10,71,63,55,57,55,52,95,76,55,0.00,40.00,12,7,24,0.00
2013-5-11,73,62,52,55,52,48,90,72,41,0.00,40.00,14,8,25,0.00
2013-5-12,69,60,54,55,53,51,95,81,58,0.00,40.00,18,15,30,0.00
2013-5-13,67,58,51,55,50,42,96,77,52,0.00,40.00,20,17,33,0.00
2013-5-14,69,57,49,49,46,41,86,68,40,0.00,40.00,23,18,36,0.00
2013-5-15,66,56,48,51,47,43,93,74,48,0.00,40.00,22,18,37,0.00
2013-5-16,66,51,46,49,27,-100,95,75,54,0.00,40.00,28,18,43,0.00
2013-5-17,64,53,48,51,42,-100,95,81,55,0.00,40.00,18,12,27,0.00
2013-5-18,65,56,45,56,49,43,98,81,49,0.00,40.00,13,8,26,0.07
2013-5-19,65,56,48,53,50,47,98,82,59,0.00,40.00,14,7,24,0.07
2013-5-20,66,56,44,51,48,42,97,76,51,0.00,40.00,14,7,23,0.00
2013-5-21,69,58,46,53,46,36,91,67,36,0.00,40.00,13,6,24,0.00
2013-5-22,70,59,46,55,49,35,96,74,29,0.00,40.00,13,6,26,0.00
2013-5-23,72,60,46,53,48,43,97,68,41,0.00,40.00,17,9,27,0.00
2013-5-24,70,58,51,54,49,43,93,74,45,0.00,40.00,20,12,33,0.00
2013-5-25,68,58,51,55,50,45,95,78,51,0.00,40.00,25,20,39,0.02
2013-5-26,66,55,50,54,51,44,96,87,65,0.00,40.00,17,14,29,0.07
2013-5-27,64,53,48,55,50,46,97,90,64,0.00,40.00,16,12,27,0.74
2013-5-28,63,55,48,55,51,47,97,88,66,0.00,40.00,16,8,25,0.29
2013-5-29,68,56,50,58,53,48,97,90,62,0.00,40.00,12,9,21,0.70
2013-5-30,69,58,46,58,47,34,98,68,43,0.00,40.00,16,10,26,0.07
2013-5-31,71,61,49,56,47,35,96,62,41,0.00,40.00,22,16,34,0.00
2013-6-1,70,61,53,50,38,24,62,43,30,0.00,40.00,26,20,41,0.00
2013-6-2,72,63,53,42,35,15,56,36,25,0.00,40.00,27,22,44,0.00
2013-6-3,72,62,50,45,29,15,84,32,13,0.00,40.00,22,18,32,0.00
2013-6-4,71,61,53,46,29,23,74,31,21,0.00,40.00,28,21,43,0.00
2013-6-5,70,59,50,48,33,18,87,41,21,0.00,40.00,27,19,40,0.00
2013-6-6,67,54,43,51,47,41,95,79,50,0.00,40.00,23,18,36,0.00
2013-6-7,67,55,45,52,47,42,94,78,48,0.00,40.00,23,14,37,0.00
2013-6-8,71,57,48,55,50,47,96,79,49,0.00,40.00,22,12,33,0.00
2013-6-9,74,61,50,56,44,22,94,59,17,0.00,40.00,19,12,28,0.00
2013-6-10,75,65,55,54,37,27,61,36,19,0.00,40.00,13,10,22,0.00
2013-6-11,76,65,53,50,35,20,59,35,18,0.00,40.00,19,10,28,0.00
2013-6-12,67,58,47,54,41,23,89,58,24,0.00,40.00,28,22,43,0.00
2013-6-13,66,56,48,51,46,39,94,72,52,0.00,40.00,29,22,44,0.00
2013-6-14,65,56,49,54,46,23,97,73,29,0.00,40.00,25,18,38,0.00
2013-6-15,71,58,47,50,43,32,97,63,27,0.00,40.00,19,14,31,0.00
2013-6-16,72,57,45,55,48,38,97,73,32,0.00,40.00,19,11,30,0.00
2013-6-17,72,57,52,55,52,49,96,83,49,0.00,40.00,21,14,31,0.00
2013-6-18,72,57,50,53,50,46,96,79,39,0.00,40.00,25,18,36,0.00
2013-6-19,69,59,49,52,49,46,97,74,46,0.00,40.00,17,9,26,0.00